createdAt,value
2018-10-11T00:00:02.445Z,82.80
2018-10-11T00:03:08.171Z,83.10
2018-10-11T00:06:13.896Z,83.10
2018-10-11T00:09:19.498Z,83.50
2018-10-11T00:12:24.991Z,83.80
2018-10-11T00:15:30.387Z,84.60
2018-10-11T00:18:35.787Z,84.80
2018-10-11T00:21:41.167Z,85.00
2018-10-11T00:24:46.602Z,85.20
2018-10-11T00:27:52.021Z,85.30
2018-10-11T00:30:57.519Z,85.50
2018-10-11T00:34:03.827Z,85.50
2018-10-11T00:37:09.391Z,85.60
2018-10-11T00:40:14.874Z,85.40
2018-10-11T00:43:20.328Z,86.00
2018-10-11T00:46:25.735Z,86.30
2018-10-11T00:49:31.194Z,86.40
2018-10-11T00:52:37.003Z,86.50
2018-10-11T00:55:42.400Z,86.50
2018-10-11T00:58:47.825Z,86.40
2018-10-11T01:01:53.211Z,86.40
2018-10-11T01:04:58.699Z,86.70
2018-10-11T01:08:04.083Z,87.00
2018-10-11T01:11:09.886Z,87.10
2018-10-11T01:14:15.395Z,87.20
2018-10-11T01:17:20.822Z,87.10
2018-10-11T01:20:26.329Z,87.30
2018-10-11T01:23:31.795Z,87.30
2018-10-11T01:26:37.180Z,87.40
2018-10-11T01:29:42.849Z,87.50
2018-10-11T01:32:48.540Z,87.30
2018-10-11T01:35:54.003Z,87.50
2018-10-11T01:38:59.407Z,87.70
2018-10-11T01:42:05.145Z,87.90
2018-10-11T01:45:11.351Z,87.90
2018-10-11T01:48:16.775Z,88.00
2018-10-11T01:51:22.191Z,88.00
2018-10-11T01:54:28.249Z,87.80
2018-10-11T01:57:33.722Z,87.70
2018-10-11T02:00:39.181Z,87.80
2018-10-11T02:03:44.639Z,88.20
2018-10-11T02:06:50.400Z,88.30
2018-10-11T02:09:55.823Z,88.30
2018-10-11T02:13:01.291Z,88.20
2018-10-11T02:16:07.334Z,88.00
2018-10-11T02:19:12.738Z,87.80
2018-10-11T02:22:18.242Z,87.70
2018-10-11T02:25:23.673Z,87.70
2018-10-11T02:28:29.083Z,87.60
2018-10-11T02:31:34.492Z,87.40
2018-10-11T02:34:39.958Z,87.20
2018-10-11T02:37:45.371Z,87.30
2018-10-11T02:40:50.776Z,87.30
2018-10-11T02:43:56.500Z,87.20
2018-10-11T02:47:02.787Z,87.10
2018-10-11T02:50:08.932Z,87.10
2018-10-11T02:53:14.360Z,87.20
2018-10-11T02:56:22.807Z,87.20
2018-10-11T02:59:34.703Z,87.70
2018-10-11T03:02:41.235Z,88.00
2018-10-11T03:05:46.886Z,87.90
2018-10-11T03:08:52.307Z,87.80
2018-10-11T03:11:59.119Z,87.80
2018-10-11T03:15:05.152Z,87.50
2018-10-11T03:18:11.316Z,88.00
2018-10-11T03:21:16.714Z,87.30
2018-10-11T03:24:22.197Z,87.40
2018-10-11T03:27:27.791Z,87.40
2018-10-11T03:30:33.229Z,87.30
2018-10-11T03:33:38.719Z,87.40
2018-10-11T03:36:44.127Z,87.40
2018-10-11T03:39:49.519Z,87.40
2018-10-11T03:42:55.304Z,87.30
2018-10-11T03:46:00.812Z,87.30
2018-10-11T03:49:06.964Z,87.10
2018-10-11T03:52:12.473Z,87.20
2018-10-11T03:55:17.889Z,87.60
2018-10-11T03:58:23.368Z,87.80
2018-10-11T04:01:28.852Z,88.00
2018-10-11T04:04:34.369Z,88.00
2018-10-11T04:07:39.930Z,88.00
2018-10-11T04:10:45.536Z,88.30
2018-10-11T04:13:50.987Z,88.40
2018-10-11T04:16:56.394Z,88.40
2018-10-11T04:20:01.835Z,88.40
2018-10-11T04:23:07.814Z,88.20
2018-10-11T04:26:13.228Z,88.10
2018-10-11T04:29:18.611Z,88.10
2018-10-11T04:32:24.803Z,88.30
2018-10-11T04:35:30.255Z,88.50
2018-10-11T04:38:35.643Z,88.30
2018-10-11T04:41:41.493Z,88.40
2018-10-11T04:44:47.535Z,88.50
2018-10-11T04:47:52.962Z,88.30
2018-10-11T04:50:58.383Z,88.10
2018-10-11T04:54:03.899Z,88.30
2018-10-11T04:57:09.511Z,88.30
2018-10-11T05:00:14.920Z,88.40
2018-10-11T05:03:20.803Z,88.50
2018-10-11T05:06:26.242Z,88.60
2018-10-11T05:09:31.738Z,88.90
2018-10-11T05:12:38.049Z,88.90
2018-10-11T05:15:44.784Z,89.20
2018-10-11T05:18:58.251Z,89.40
2018-10-11T05:22:03.695Z,89.70
2018-10-11T05:25:09.623Z,89.80
2018-10-11T05:28:15.036Z,89.70
2018-10-11T05:31:20.500Z,90.00
2018-10-11T05:34:26.256Z,90.00
2018-10-11T05:37:31.728Z,90.00
2018-10-11T05:40:37.592Z,89.90
2018-10-11T05:43:43.396Z,90.00
2018-10-11T05:46:49.547Z,90.00
2018-10-11T05:49:55.051Z,90.00
2018-10-11T05:53:00.889Z,90.10
2018-10-11T05:56:06.674Z,90.20
2018-10-11T05:59:12.358Z,90.00
2018-10-11T06:02:17.927Z,89.90
2018-10-11T06:05:23.736Z,89.80
2018-10-11T06:08:29.835Z,89.70
2018-10-11T06:11:35.303Z,89.60
2018-10-11T06:14:41.051Z,89.50
2018-10-11T06:17:46.662Z,89.40
2018-10-11T06:20:53.006Z,89.70
2018-10-11T06:23:58.554Z,89.50
2018-10-11T06:27:04.319Z,89.50
2018-10-11T06:30:12.785Z,89.50
2018-10-11T06:33:18.870Z,89.30
2018-10-11T06:36:26.810Z,89.40
2018-10-11T06:39:32.475Z,89.20
2018-10-11T06:42:38.032Z,89.10
2018-10-11T06:45:44.992Z,89.10
2018-10-11T06:48:50.554Z,88.90
2018-10-11T06:51:56.039Z,88.80
2018-10-11T06:55:01.619Z,88.50
2018-10-11T06:58:07.319Z,88.40
2018-10-11T07:01:12.874Z,88.20
2018-10-11T07:04:18.356Z,88.50
2018-10-11T07:07:24.340Z,88.30
2018-10-11T07:10:29.900Z,88.10
2018-10-11T07:13:35.428Z,88.10
2018-10-11T07:16:40.959Z,89.20
2018-10-11T07:19:46.670Z,87.90
2018-10-11T07:22:52.376Z,87.70
2018-10-11T07:25:58.010Z,87.20
2018-10-11T07:29:03.675Z,87.20
2018-10-11T07:32:09.637Z,87.30
2018-10-11T07:35:15.787Z,87.30
2018-10-11T07:38:21.395Z,86.50
2018-10-11T07:41:26.870Z,85.90
2018-10-11T07:44:32.854Z,85.60
2018-10-11T07:47:38.369Z,85.60
2018-10-11T07:50:43.932Z,85.50
2018-10-11T07:53:50.191Z,84.80
2018-10-11T07:56:57.787Z,84.60
2018-10-11T08:00:03.426Z,84.40
2018-10-11T08:03:09.011Z,83.90
2018-10-11T08:06:14.796Z,84.10
2018-10-11T08:09:20.308Z,83.30
2018-10-11T08:12:26.386Z,82.70
2018-10-11T08:15:31.824Z,82.80
2018-10-11T08:18:37.381Z,82.10
2018-10-11T08:21:43.045Z,81.30
2018-10-11T08:24:48.885Z,80.60
2018-10-11T08:27:54.472Z,80.40
2018-10-11T08:30:59.917Z,79.50
2018-10-11T08:34:05.507Z,78.40
2018-10-11T08:37:10.961Z,78.10
2018-10-11T08:40:16.406Z,76.70
2018-10-11T08:43:21.932Z,77.00
2018-10-11T08:46:27.612Z,77.30
2018-10-11T08:49:33.166Z,77.40
2018-10-11T08:52:38.715Z,76.60
2018-10-11T08:55:44.231Z,76.30
2018-10-11T08:58:49.743Z,76.00
2018-10-11T09:01:55.324Z,75.60
2018-10-11T09:05:00.992Z,76.20
2018-10-11T09:08:07.224Z,76.10
2018-10-11T09:11:13.632Z,75.70
2018-10-11T09:14:19.244Z,75.10
2018-10-11T09:17:24.735Z,74.50
2018-10-11T09:20:30.294Z,74.20
2018-10-11T09:23:35.695Z,74.20
2018-10-11T09:26:41.287Z,74.50
2018-10-11T09:29:47.248Z,74.60
2018-10-11T09:32:53.726Z,73.90
2018-10-11T09:35:59.218Z,73.20
2018-10-11T09:39:06.635Z,72.80
2018-10-11T09:42:12.652Z,72.60
2018-10-11T09:45:18.284Z,72.00
2018-10-11T09:48:24.230Z,71.30
2018-10-11T09:54:58.692Z,70.50
2018-10-11T09:58:07.011Z,70.50
2018-10-11T10:01:17.649Z,71.10
2018-10-11T10:04:23.112Z,70.80
2018-10-11T10:07:28.976Z,70.10
2018-10-11T10:10:34.400Z,69.90
2018-10-11T10:13:39.883Z,69.90
2018-10-11T10:16:45.372Z,69.50
2018-10-11T10:19:50.891Z,68.90
2018-10-11T10:22:56.471Z,68.30
2018-10-11T10:26:01.894Z,68.30
2018-10-11T10:29:07.456Z,66.90
2018-10-11T10:32:13.003Z,67.20
2018-10-11T10:35:19.088Z,67.00
2018-10-11T10:38:24.595Z,67.00
2018-10-11T10:41:30.131Z,66.70
2018-10-11T10:44:35.587Z,64.80
2018-10-11T10:47:41.075Z,65.50
2018-10-11T10:50:46.553Z,64.50
2018-10-11T10:53:52.000Z,63.20
2018-10-11T10:56:58.386Z,61.80
2018-10-11T11:00:05.136Z,61.40
2018-10-11T11:03:10.584Z,60.20
2018-10-11T11:06:16.954Z,59.40
2018-10-11T11:09:22.447Z,58.70
2018-10-11T11:12:27.899Z,58.20
2018-10-11T11:15:33.367Z,57.90
2018-10-11T11:18:38.771Z,57.60
2018-10-11T11:21:44.185Z,56.90
2018-10-11T11:24:49.620Z,56.20
2018-10-11T11:27:55.528Z,54.00
2018-10-11T11:31:00.934Z,53.20
2018-10-11T11:34:06.772Z,52.50
2018-10-11T11:37:12.215Z,51.90
2018-10-11T11:40:17.805Z,50.80
2018-10-11T11:43:23.288Z,49.90
2018-10-11T11:46:28.808Z,48.90
2018-10-11T11:49:34.271Z,47.30
2018-10-11T11:52:40.351Z,46.20
2018-10-11T11:55:45.822Z,45.00
2018-10-11T11:58:51.283Z,43.60
2018-10-11T12:01:56.758Z,42.90
2018-10-11T12:05:03.166Z,42.30
2018-10-11T12:08:08.779Z,42.20
2018-10-11T12:11:14.346Z,41.50
2018-10-11T12:14:19.823Z,41.80
2018-10-11T12:17:25.364Z,39.70
2018-10-11T12:20:32.382Z,39.30
2018-10-11T12:23:37.836Z,38.60
2018-10-11T12:26:43.410Z,38.90
2018-10-11T12:29:51.964Z,38.00
2018-10-11T12:32:57.490Z,38.20
2018-10-11T12:36:02.955Z,38.50
2018-10-11T12:39:12.495Z,37.90
2018-10-11T12:42:20.303Z,37.80
2018-10-11T12:45:26.223Z,36.70
2018-10-11T12:48:31.849Z,36.40
2018-10-11T12:51:37.359Z,35.30
2018-10-11T12:54:42.950Z,34.70
2018-10-11T12:57:48.363Z,34.10
2018-10-11T13:00:53.830Z,34.90
2018-10-11T13:03:59.476Z,35.20
2018-10-11T13:07:05.017Z,34.90
2018-10-11T13:10:10.462Z,34.60
2018-10-11T13:13:15.947Z,35.10
2018-10-11T13:16:21.372Z,34.70
2018-10-11T13:19:26.847Z,33.20
2018-10-11T13:22:32.338Z,33.20
2018-10-11T13:25:37.764Z,33.00
2018-10-11T13:28:43.211Z,33.40
2018-10-11T13:31:49.031Z,33.50
2018-10-11T13:34:54.531Z,33.70
2018-10-11T13:37:59.939Z,34.90
2018-10-11T13:41:05.374Z,35.40
2018-10-11T13:44:12.087Z,35.70
2018-10-11T13:47:17.577Z,37.60
2018-10-11T13:50:23.144Z,39.40
2018-10-11T13:53:28.620Z,39.50
2018-10-11T13:56:34.019Z,40.80
2018-10-11T13:59:40.152Z,42.30
2018-10-11T14:02:45.764Z,42.70
2018-10-11T14:05:51.172Z,43.60
2018-10-11T14:08:56.595Z,44.30
2018-10-11T14:12:02.155Z,44.70
2018-10-11T14:15:09.087Z,45.20
2018-10-11T14:18:14.829Z,45.40
2018-10-11T14:21:20.243Z,45.70
2018-10-11T14:24:25.764Z,46.30
2018-10-11T14:27:31.207Z,46.60
2018-10-11T14:30:36.619Z,47.40
2018-10-11T14:33:42.195Z,47.90
2018-10-11T14:36:47.706Z,48.20
2018-10-11T14:39:53.299Z,48.40
2018-10-11T14:42:58.767Z,49.00
2018-10-11T14:46:04.206Z,48.90
2018-10-11T14:49:09.649Z,48.50
2018-10-11T14:52:15.047Z,48.20
2018-10-11T14:55:20.542Z,49.00
2018-10-11T14:58:25.965Z,49.00
2018-10-11T15:01:31.440Z,48.50
2018-10-11T15:04:36.935Z,48.90
2018-10-11T15:07:42.352Z,48.90
2018-10-11T15:10:47.834Z,49.40
2018-10-11T15:13:53.462Z,49.80
2018-10-11T15:16:58.919Z,50.00
2018-10-11T15:20:04.433Z,50.50
2018-10-11T15:23:09.925Z,50.40
2018-10-11T15:26:15.398Z,50.70
2018-10-11T15:29:20.906Z,51.00
2018-10-11T15:32:26.598Z,50.90
2018-10-11T15:35:32.069Z,51.30
2018-10-11T15:38:37.559Z,51.50
2018-10-11T15:41:43.022Z,52.00
2018-10-11T15:44:48.463Z,52.60
2018-10-11T15:47:53.985Z,52.80
2018-10-11T15:50:59.426Z,53.50
2018-10-11T15:54:04.975Z,54.00
2018-10-11T15:57:10.841Z,54.10
2018-10-11T16:00:16.585Z,53.80
2018-10-11T16:03:22.135Z,54.40
2018-10-11T16:06:27.598Z,55.30
2018-10-11T16:09:33.069Z,56.00
2018-10-11T16:12:38.733Z,55.70
2018-10-11T16:15:44.175Z,55.70
2018-10-11T16:18:49.598Z,56.00
2018-10-11T16:21:55.023Z,56.50
2018-10-11T16:25:00.503Z,56.70
2018-10-11T16:28:06.280Z,56.90
2018-10-11T16:31:11.695Z,57.50
2018-10-11T16:34:17.203Z,57.90
2018-10-11T16:37:22.695Z,58.00
2018-10-11T16:40:28.124Z,58.90
2018-10-11T16:43:33.694Z,59.20
2018-10-11T16:46:39.487Z,59.30
2018-10-11T16:49:45.050Z,59.80
2018-10-11T16:52:50.846Z,60.10
2018-10-11T16:55:56.332Z,60.80
2018-10-11T16:59:01.776Z,61.70
2018-10-11T17:02:08.114Z,62.00
2018-10-11T17:05:13.526Z,62.40
2018-10-11T17:08:19.000Z,63.30
2018-10-11T17:11:24.421Z,64.50
2018-10-11T17:14:29.970Z,64.70
2018-10-11T17:17:35.397Z,65.20
2018-10-11T17:20:40.825Z,65.40
2018-10-11T17:23:46.530Z,66.30
2018-10-11T17:26:51.939Z,66.50
2018-10-11T17:29:57.412Z,66.10
2018-10-11T17:33:02.994Z,66.00
2018-10-11T17:36:08.474Z,66.30
2018-10-11T17:39:13.891Z,66.90
2018-10-11T17:42:19.384Z,67.50
2018-10-11T17:45:24.967Z,68.10
2018-10-11T17:48:30.379Z,68.60
2018-10-11T17:51:35.780Z,68.60
2018-10-11T17:54:45.359Z,68.20
2018-10-11T17:57:50.780Z,68.50
2018-10-11T18:00:56.182Z,68.30
2018-10-11T18:04:01.643Z,68.30
2018-10-11T18:07:07.307Z,69.00
2018-10-11T18:10:12.798Z,69.10
2018-10-11T18:13:18.527Z,69.00
2018-10-11T18:16:23.918Z,68.60
2018-10-11T18:19:29.335Z,68.20
2018-10-11T18:22:35.056Z,68.60
2018-10-11T18:25:40.474Z,68.40
2018-10-11T18:28:45.914Z,68.30
2018-10-11T18:31:51.359Z,68.70
2018-10-11T18:34:56.858Z,68.10
2018-10-11T18:38:02.328Z,68.30
2018-10-11T18:41:07.813Z,68.30
2018-10-11T18:44:13.594Z,68.20
2018-10-11T18:47:19.362Z,68.30
2018-10-11T18:50:24.790Z,68.60
2018-10-11T18:53:30.305Z,67.80
2018-10-11T18:56:35.739Z,67.70
2018-10-11T18:59:41.183Z,68.00
2018-10-11T19:02:46.696Z,68.30
2018-10-11T19:05:52.156Z,68.60
2018-10-11T19:08:57.592Z,68.20
2018-10-11T19:12:03.006Z,68.30
2018-10-11T19:15:08.995Z,67.30
2018-10-11T19:18:14.476Z,67.10
2018-10-11T19:21:19.913Z,67.80
2018-10-11T19:24:25.379Z,67.70
2018-10-11T19:27:30.814Z,67.70
2018-10-11T19:30:36.342Z,68.60
2018-10-11T19:33:41.807Z,69.20
2018-10-11T19:36:47.242Z,69.80
2018-10-11T19:39:52.764Z,69.60
2018-10-11T19:42:59.250Z,68.80
2018-10-11T19:46:04.679Z,69.00
2018-10-11T19:49:10.098Z,69.30
2018-10-11T19:52:15.680Z,69.40
2018-10-11T19:55:21.122Z,68.20
2018-10-11T19:58:26.524Z,69.00
2018-10-11T20:01:31.971Z,69.70
2018-10-11T20:04:37.409Z,70.20
2018-10-11T20:07:42.874Z,70.70
2018-10-11T20:10:48.458Z,71.30
2018-10-11T20:13:53.951Z,71.70
2018-10-11T20:16:59.367Z,71.90
2018-10-11T20:20:05.167Z,72.70
2018-10-11T20:23:10.586Z,73.40
2018-10-11T20:26:15.990Z,74.00
2018-10-11T20:29:21.451Z,73.80
2018-10-11T20:32:26.938Z,74.00
2018-10-11T20:35:32.385Z,74.10
2018-10-11T20:38:37.794Z,74.90
2018-10-11T20:41:43.250Z,75.40
2018-10-11T20:44:48.783Z,75.70
2018-10-11T20:47:54.224Z,75.90
2018-10-11T20:50:59.731Z,76.10
2018-10-11T20:54:05.240Z,77.70
2018-10-11T20:57:10.902Z,77.20
2018-10-11T21:00:16.371Z,77.90
2018-10-11T21:03:21.904Z,78.00
2018-10-11T21:06:27.574Z,77.20
2018-10-11T21:09:33.014Z,76.90
2018-10-11T21:12:38.529Z,77.60
2018-10-11T21:15:44.061Z,78.10
2018-10-11T21:18:49.762Z,78.50
2018-10-11T21:21:55.191Z,78.90
2018-10-11T21:25:00.631Z,78.90
2018-10-11T21:28:06.246Z,79.10
2018-10-11T21:31:11.895Z,79.30
2018-10-11T21:34:17.396Z,79.60
2018-10-11T21:37:23.028Z,79.80
2018-10-11T21:40:30.816Z,80.40
2018-10-11T21:43:47.878Z,80.70
2018-10-11T21:46:53.690Z,80.70
2018-10-11T21:49:59.107Z,80.80
2018-10-11T21:53:04.652Z,81.40
2018-10-11T21:56:10.090Z,79.60
2018-10-11T21:59:15.660Z,79.40
2018-10-11T22:02:21.154Z,79.00
2018-10-11T22:05:26.574Z,78.10
2018-10-11T22:08:31.995Z,78.00
2018-10-11T22:11:37.701Z,77.70
2018-10-11T22:14:43.207Z,77.50
2018-10-11T22:17:48.730Z,77.30
2018-10-11T22:20:54.293Z,77.30
2018-10-11T22:23:59.994Z,77.30
2018-10-11T22:27:05.774Z,77.30
2018-10-11T22:30:11.506Z,76.30
2018-10-11T22:33:16.958Z,76.00
2018-10-11T22:36:22.405Z,75.80
2018-10-11T22:39:28.836Z,75.50
2018-10-11T22:42:36.646Z,75.50
2018-10-11T22:45:42.199Z,75.60
2018-10-11T22:48:47.596Z,75.30
2018-10-11T22:51:53.439Z,75.60
2018-10-11T22:54:58.871Z,76.00
2018-10-11T22:58:04.659Z,75.10
2018-10-11T23:01:10.077Z,76.20
2018-10-11T23:04:15.526Z,75.70
2018-10-11T23:07:20.975Z,75.60
2018-10-11T23:32:44.421Z,73.10
2018-10-11T23:35:49.884Z,71.90
2018-10-11T23:38:55.303Z,71.60
2018-10-11T23:42:00.745Z,71.70
2018-10-11T23:45:07.114Z,71.40
2018-10-11T23:48:12.558Z,71.60
2018-10-11T23:51:18.207Z,70.90
2018-10-11T23:54:23.839Z,70.90
2018-10-11T23:57:29.326Z,70.70
